sensor_id;sensor_type;location;lat;lon;timestamp;P1;durP1;ratioP1;P2;durP2;ratioP2
37131;SDS011;23035;50.032;21.978;2023-12-22T00:00:56;4.97;;;2.33;;
37131;SDS011;23035;50.032;21.978;2023-12-22T00:06:27;3.67;;;2.33;;
37131;SDS011;23035;50.032;21.978;2023-12-22T00:11:32;6.20;;;2.42;;
37131;SDS011;23035;50.032;21.978;2023-12-22T00:17:42;3.70;;;1.90;;
37131;SDS011;23035;50.032;21.978;2023-12-22T00:28:36;2.63;;;1.75;;
37131;SDS011;23035;50.032;21.978;2023-12-22T00:33:43;2.85;;;1.65;;
37131;SDS011;23035;50.032;21.978;2023-12-22T00:38:52;4.15;;;1.90;;
37131;SDS011;23035;50.032;21.978;2023-12-22T00:44:01;3.13;;;1.60;;
37131;SDS011;23035;50.032;21.978;2023-12-22T00:49:07;1.70;;;1.30;;
37131;SDS011;23035;50.032;21.978;2023-12-22T00:54:12;2.25;;;1.52;;
37131;SDS011;23035;50.032;21.978;2023-12-22T00:59:19;2.60;;;1.23;;
37131;SDS011;23035;50.032;21.978;2023-12-22T01:04:24;3.55;;;1.50;;
37131;SDS011;23035;50.032;21.978;2023-12-22T01:09:28;2.47;;;1.45;;
37131;SDS011;23035;50.032;21.978;2023-12-22T01:14:34;2.38;;;1.52;;
37131;SDS011;23035;50.032;21.978;2023-12-22T01:19:39;1.75;;;1.50;;
37131;SDS011;23035;50.032;21.978;2023-12-22T01:24:44;3.23;;;1.83;;
37131;SDS011;23035;50.032;21.978;2023-12-22T01:29:50;2.13;;;1.35;;
37131;SDS011;23035;50.032;21.978;2023-12-22T01:34:55;3.33;;;1.65;;
37131;SDS011;23035;50.032;21.978;2023-12-22T01:40:00;1.77;;;1.33;;
37131;SDS011;23035;50.032;21.978;2023-12-22T01:45:06;2.78;;;1.25;;
37131;SDS011;23035;50.032;21.978;2023-12-22T01:50:12;4.32;;;1.40;;
37131;SDS011;23035;50.032;21.978;2023-12-22T01:55:18;3.55;;;1.20;;
37131;SDS011;23035;50.032;21.978;2023-12-22T02:00:25;8.60;;;2.13;;
37131;SDS011;23035;50.032;21.978;2023-12-22T02:05:29;3.50;;;1.48;;
37131;SDS011;23035;50.032;21.978;2023-12-22T02:10:34;3.28;;;1.20;;
37131;SDS011;23035;50.032;21.978;2023-12-22T02:15:42;5.45;;;1.13;;
37131;SDS011;23035;50.032;21.978;2023-12-22T02:20:47;6.22;;;1.55;;
37131;SDS011;23035;50.032;21.978;2023-12-22T02:25:56;4.18;;;1.65;;
37131;SDS011;23035;50.032;21.978;2023-12-22T02:31:13;6.97;;;1.65;;
37131;SDS011;23035;50.032;21.978;2023-12-22T02:36:21;3.72;;;1.45;;
37131;SDS011;23035;50.032;21.978;2023-12-22T02:41:31;8.55;;;2.28;;
37131;SDS011;23035;50.032;21.978;2023-12-22T02:46:37;8.90;;;2.60;;
37131;SDS011;23035;50.032;21.978;2023-12-22T02:51:43;8.75;;;2.50;;
37131;SDS011;23035;50.032;21.978;2023-12-22T02:56:49;6.10;;;1.97;;
37131;SDS011;23035;50.032;21.978;2023-12-22T03:01:54;11.38;;;3.22;;
37131;SDS011;23035;50.032;21.978;2023-12-22T03:06:59;6.67;;;2.50;;
37131;SDS011;23035;50.032;21.978;2023-12-22T03:12:06;7.53;;;2.00;;
37131;SDS011;23035;50.032;21.978;2023-12-22T03:17:12;5.75;;;1.70;;
37131;SDS011;23035;50.032;21.978;2023-12-22T04:44:49;8.52;;;2.15;;
37131;SDS011;23035;50.032;21.978;2023-12-22T04:50:24;9.25;;;2.60;;
37131;SDS011;23035;50.032;21.978;2023-12-22T04:55:29;9.83;;;2.27;;
37131;SDS011;23035;50.032;21.978;2023-12-22T05:00:36;8.25;;;2.38;;
37131;SDS011;23035;50.032;21.978;2023-12-22T05:05:41;9.40;;;2.72;;
37131;SDS011;23035;50.032;21.978;2023-12-22T05:10:46;6.27;;;1.80;;
37131;SDS011;23035;50.032;21.978;2023-12-22T05:15:52;8.80;;;2.87;;
37131;SDS011;23035;50.032;21.978;2023-12-22T05:20:57;6.45;;;1.63;;
37131;SDS011;23035;50.032;21.978;2023-12-22T05:26:02;11.18;;;2.78;;
37131;SDS011;23035;50.032;21.978;2023-12-22T05:31:08;9.43;;;2.20;;
37131;SDS011;23035;50.032;21.978;2023-12-22T06:07:42;11.85;;;2.45;;
37131;SDS011;23035;50.032;21.978;2023-12-22T06:12:56;12.45;;;2.13;;
37131;SDS011;23035;50.032;21.978;2023-12-22T06:18:01;7.03;;;1.77;;
37131;SDS011;23035;50.032;21.978;2023-12-22T06:23:08;11.35;;;2.28;;
37131;SDS011;23035;50.032;21.978;2023-12-22T06:28:12;9.90;;;2.40;;
37131;SDS011;23035;50.032;21.978;2023-12-22T06:33:19;12.00;;;2.80;;
37131;SDS011;23035;50.032;21.978;2023-12-22T06:38:26;9.23;;;2.87;;
37131;SDS011;23035;50.032;21.978;2023-12-22T06:43:31;11.45;;;2.50;;
37131;SDS011;23035;50.032;21.978;2023-12-22T06:48:36;11.15;;;2.70;;
37131;SDS011;23035;50.032;21.978;2023-12-22T06:53:44;14.30;;;3.97;;
37131;SDS011;23035;50.032;21.978;2023-12-22T06:58:57;13.52;;;3.40;;
37131;SDS011;23035;50.032;21.978;2023-12-22T07:04:02;8.20;;;2.30;;
37131;SDS011;23035;50.032;21.978;2023-12-22T07:09:29;6.15;;;1.77;;
37131;SDS011;23035;50.032;21.978;2023-12-22T07:14:37;7.72;;;2.05;;
37131;SDS011;23035;50.032;21.978;2023-12-22T07:19:41;11.93;;;2.90;;
37131;SDS011;23035;50.032;21.978;2023-12-22T07:24:48;8.33;;;1.93;;
37131;SDS011;23035;50.032;21.978;2023-12-22T07:29:56;9.18;;;2.30;;
37131;SDS011;23035;50.032;21.978;2023-12-22T07:35:01;12.15;;;3.33;;
37131;SDS011;23035;50.032;21.978;2023-12-22T07:40:09;12.27;;;2.42;;
37131;SDS011;23035;50.032;21.978;2023-12-22T07:45:14;11.43;;;3.28;;
37131;SDS011;23035;50.032;21.978;2023-12-22T07:50:19;8.93;;;2.00;;
37131;SDS011;23035;50.032;21.978;2023-12-22T07:55:25;14.27;;;2.73;;
37131;SDS011;23035;50.032;21.978;2023-12-22T08:00:30;6.53;;;2.17;;
37131;SDS011;23035;50.032;21.978;2023-12-22T08:05:35;15.97;;;3.20;;
37131;SDS011;23035;50.032;21.978;2023-12-22T08:10:41;13.35;;;3.35;;
37131;SDS011;23035;50.032;21.978;2023-12-22T08:15:45;9.50;;;3.03;;
37131;SDS011;23035;50.032;21.978;2023-12-22T08:20:52;11.48;;;3.47;;
37131;SDS011;23035;50.032;21.978;2023-12-22T08:25:58;15.30;;;3.47;;
37131;SDS011;23035;50.032;21.978;2023-12-22T08:31:03;15.10;;;2.83;;
37131;SDS011;23035;50.032;21.978;2023-12-22T08:36:08;13.27;;;2.60;;
37131;SDS011;23035;50.032;21.978;2023-12-22T08:41:14;15.65;;;3.05;;
37131;SDS011;23035;50.032;21.978;2023-12-22T08:46:19;18.50;;;3.15;;
37131;SDS011;23035;50.032;21.978;2023-12-22T08:51:23;15.48;;;3.28;;
37131;SDS011;23035;50.032;21.978;2023-12-22T08:56:29;23.48;;;5.00;;
37131;SDS011;23035;50.032;21.978;2023-12-22T09:01:34;8.88;;;3.22;;
37131;SDS011;23035;50.032;21.978;2023-12-22T09:06:39;15.20;;;4.13;;
37131;SDS011;23035;50.032;21.978;2023-12-22T09:11:45;9.98;;;2.60;;
37131;SDS011;23035;50.032;21.978;2023-12-22T09:16:49;5.90;;;2.33;;
37131;SDS011;23035;50.032;21.978;2023-12-22T09:21:54;9.38;;;2.60;;
37131;SDS011;23035;50.032;21.978;2023-12-22T09:27:00;12.55;;;2.63;;
37131;SDS011;23035;50.032;21.978;2023-12-22T09:32:05;14.30;;;2.95;;
37131;SDS011;23035;50.032;21.978;2023-12-22T09:37:11;17.25;;;2.53;;
37131;SDS011;23035;50.032;21.978;2023-12-22T09:42:17;11.55;;;2.92;;
37131;SDS011;23035;50.032;21.978;2023-12-22T09:47:21;16.10;;;3.25;;
37131;SDS011;23035;50.032;21.978;2023-12-22T09:52:29;9.93;;;3.40;;
37131;SDS011;23035;50.032;21.978;2023-12-22T09:57:39;18.08;;;3.63;;
37131;SDS011;23035;50.032;21.978;2023-12-22T10:02:46;18.95;;;3.58;;
37131;SDS011;23035;50.032;21.978;2023-12-22T10:07:51;12.73;;;2.45;;
37131;SDS011;23035;50.032;21.978;2023-12-22T10:18:07;17.65;;;3.63;;
37131;SDS011;23035;50.032;21.978;2023-12-22T10:23:12;18.05;;;4.00;;
37131;SDS011;23035;50.032;21.978;2023-12-22T10:28:18;13.13;;;3.00;;
37131;SDS011;23035;50.032;21.978;2023-12-22T10:33:29;14.05;;;3.38;;
37131;SDS011;23035;50.032;21.978;2023-12-22T10:38:37;12.95;;;2.97;;
37131;SDS011;23035;50.032;21.978;2023-12-22T10:43:51;10.48;;;2.78;;
37131;SDS011;23035;50.032;21.978;2023-12-22T10:48:57;13.25;;;3.83;;
37131;SDS011;23035;50.032;21.978;2023-12-22T10:54:03;14.55;;;3.08;;
37131;SDS011;23035;50.032;21.978;2023-12-22T10:59:10;14.35;;;4.07;;
37131;SDS011;23035;50.032;21.978;2023-12-22T11:04:20;20.63;;;4.30;;
37131;SDS011;23035;50.032;21.978;2023-12-22T11:09:26;13.10;;;4.20;;
37131;SDS011;23035;50.032;21.978;2023-12-22T11:14:41;18.27;;;3.75;;
37131;SDS011;23035;50.032;21.978;2023-12-22T11:19:47;11.93;;;3.88;;
37131;SDS011;23035;50.032;21.978;2023-12-22T12:15:31;6.35;;;1.90;;
37131;SDS011;23035;50.032;21.978;2023-12-22T12:20:39;9.20;;;2.00;;
37131;SDS011;23035;50.032;21.978;2023-12-22T12:25:44;7.97;;;2.30;;
37131;SDS011;23035;50.032;21.978;2023-12-22T12:30:58;8.18;;;2.08;;
37131;SDS011;23035;50.032;21.978;2023-12-22T12:36:06;9.18;;;2.28;;
37131;SDS011;23035;50.032;21.978;2023-12-22T12:41:14;5.32;;;1.92;;
37131;SDS011;23035;50.032;21.978;2023-12-22T12:46:21;4.82;;;1.80;;
37131;SDS011;23035;50.032;21.978;2023-12-22T12:51:26;6.28;;;2.88;;
37131;SDS011;23035;50.032;21.978;2023-12-22T12:56:35;8.77;;;2.75;;
37131;SDS011;23035;50.032;21.978;2023-12-22T13:01:44;8.93;;;3.72;;
37131;SDS011;23035;50.032;21.978;2023-12-22T13:06:50;13.18;;;4.03;;
37131;SDS011;23035;50.032;21.978;2023-12-22T13:11:56;9.55;;;3.10;;
37131;SDS011;23035;50.032;21.978;2023-12-22T13:17:03;11.70;;;3.38;;
37131;SDS011;23035;50.032;21.978;2023-12-22T13:22:09;10.40;;;3.50;;
37131;SDS011;23035;50.032;21.978;2023-12-22T13:27:14;9.50;;;2.95;;
37131;SDS011;23035;50.032;21.978;2023-12-22T13:32:21;6.53;;;1.73;;
37131;SDS011;23035;50.032;21.978;2023-12-22T13:37:27;8.90;;;3.45;;
37131;SDS011;23035;50.032;21.978;2023-12-22T13:42:34;12.63;;;4.82;;
37131;SDS011;23035;50.032;21.978;2023-12-22T13:47:42;12.60;;;4.25;;
37131;SDS011;23035;50.032;21.978;2023-12-22T13:52:50;9.93;;;3.40;;
37131;SDS011;23035;50.032;21.978;2023-12-22T13:57:58;12.20;;;4.28;;
37131;SDS011;23035;50.032;21.978;2023-12-22T14:03:05;10.98;;;4.32;;
37131;SDS011;23035;50.032;21.978;2023-12-22T14:08:10;8.70;;;3.30;;
37131;SDS011;23035;50.032;21.978;2023-12-22T14:13:16;8.18;;;3.28;;
37131;SDS011;23035;50.032;21.978;2023-12-22T14:18:23;8.88;;;3.67;;
37131;SDS011;23035;50.032;21.978;2023-12-22T14:23:28;9.05;;;2.85;;
37131;SDS011;23035;50.032;21.978;2023-12-22T14:28:34;7.35;;;3.05;;
37131;SDS011;23035;50.032;21.978;2023-12-22T14:33:41;9.88;;;3.90;;
37131;SDS011;23035;50.032;21.978;2023-12-22T14:38:46;11.65;;;3.70;;
37131;SDS011;23035;50.032;21.978;2023-12-22T14:43:50;9.60;;;3.80;;
37131;SDS011;23035;50.032;21.978;2023-12-22T14:49:00;9.02;;;3.50;;
37131;SDS011;23035;50.032;21.978;2023-12-22T14:54:05;14.23;;;5.32;;
37131;SDS011;23035;50.032;21.978;2023-12-22T14:59:11;8.05;;;3.63;;
37131;SDS011;23035;50.032;21.978;2023-12-22T15:04:18;7.20;;;2.83;;
37131;SDS011;23035;50.032;21.978;2023-12-22T15:09:23;10.90;;;3.60;;
37131;SDS011;23035;50.032;21.978;2023-12-22T15:14:53;6.50;;;2.67;;
37131;SDS011;23035;50.032;21.978;2023-12-22T15:20:01;11.88;;;4.18;;
37131;SDS011;23035;50.032;21.978;2023-12-22T15:25:13;7.20;;;3.35;;
37131;SDS011;23035;50.032;21.978;2023-12-22T15:30:17;8.00;;;3.20;;
37131;SDS011;23035;50.032;21.978;2023-12-22T15:35:23;12.18;;;4.90;;
37131;SDS011;23035;50.032;21.978;2023-12-22T15:45:32;10.27;;;3.67;;
37131;SDS011;23035;50.032;21.978;2023-12-22T15:50:38;10.20;;;4.60;;
37131;SDS011;23035;50.032;21.978;2023-12-22T16:00:47;17.42;;;5.30;;
37131;SDS011;23035;50.032;21.978;2023-12-22T16:05:54;19.50;;;7.13;;
37131;SDS011;23035;50.032;21.978;2023-12-22T16:10:59;17.05;;;6.60;;
37131;SDS011;23035;50.032;21.978;2023-12-22T16:16:03;21.05;;;7.63;;
37131;SDS011;23035;50.032;21.978;2023-12-22T16:21:09;13.43;;;5.15;;
37131;SDS011;23035;50.032;21.978;2023-12-22T16:26:18;14.65;;;5.53;;
37131;SDS011;23035;50.032;21.978;2023-12-22T16:31:24;19.17;;;6.00;;
37131;SDS011;23035;50.032;21.978;2023-12-22T16:36:30;20.38;;;6.80;;
37131;SDS011;23035;50.032;21.978;2023-12-22T16:46:40;15.15;;;6.22;;
37131;SDS011;23035;50.032;21.978;2023-12-22T16:51:49;10.82;;;5.30;;
37131;SDS011;23035;50.032;21.978;2023-12-22T17:01:57;17.55;;;6.97;;
37131;SDS011;23035;50.032;21.978;2023-12-22T17:07:23;21.35;;;6.55;;
37131;SDS011;23035;50.032;21.978;2023-12-22T17:12:27;21.58;;;6.63;;
37131;SDS011;23035;50.032;21.978;2023-12-22T17:17:32;14.73;;;6.13;;
37131;SDS011;23035;50.032;21.978;2023-12-22T17:22:38;14.25;;;5.63;;
37131;SDS011;23035;50.032;21.978;2023-12-22T17:32:46;17.02;;;4.93;;
37131;SDS011;23035;50.032;21.978;2023-12-22T17:37:52;12.38;;;4.22;;
37131;SDS011;23035;50.032;21.978;2023-12-22T17:42:56;22.02;;;5.47;;
37131;SDS011;23035;50.032;21.978;2023-12-22T17:48:01;17.30;;;5.80;;
37131;SDS011;23035;50.032;21.978;2023-12-22T17:53:06;17.95;;;5.57;;
37131;SDS011;23035;50.032;21.978;2023-12-22T17:58:11;13.20;;;4.43;;
37131;SDS011;23035;50.032;21.978;2023-12-22T18:03:15;12.32;;;5.47;;
37131;SDS011;23035;50.032;21.978;2023-12-22T18:08:22;16.60;;;5.28;;
37131;SDS011;23035;50.032;21.978;2023-12-22T18:18:31;17.70;;;4.60;;
37131;SDS011;23035;50.032;21.978;2023-12-22T18:23:37;19.27;;;5.88;;
37131;SDS011;23035;50.032;21.978;2023-12-22T18:28:48;8.77;;;3.83;;
37131;SDS011;23035;50.032;21.978;2023-12-22T18:33:52;20.33;;;6.93;;
37131;SDS011;23035;50.032;21.978;2023-12-22T18:38:59;21.05;;;6.47;;
37131;SDS011;23035;50.032;21.978;2023-12-22T18:49:08;9.18;;;3.03;;
37131;SDS011;23035;50.032;21.978;2023-12-22T18:54:15;9.63;;;2.92;;
37131;SDS011;23035;50.032;21.978;2023-12-22T19:04:24;9.68;;;2.88;;
37131;SDS011;23035;50.032;21.978;2023-12-22T19:09:32;9.07;;;3.80;;
37131;SDS011;23035;50.032;21.978;2023-12-22T19:14:37;11.30;;;3.50;;
37131;SDS011;23035;50.032;21.978;2023-12-22T19:19:41;10.88;;;2.97;;
37131;SDS011;23035;50.032;21.978;2023-12-22T19:24:47;11.75;;;3.20;;
37131;SDS011;23035;50.032;21.978;2023-12-22T19:29:52;6.55;;;2.65;;
37131;SDS011;23035;50.032;21.978;2023-12-22T19:34:57;17.98;;;5.82;;
37131;SDS011;23035;50.032;21.978;2023-12-22T19:40:03;23.35;;;5.95;;
37131;SDS011;23035;50.032;21.978;2023-12-22T19:45:11;13.85;;;4.03;;
37131;SDS011;23035;50.032;21.978;2023-12-22T19:50:15;14.48;;;3.90;;
37131;SDS011;23035;50.032;21.978;2023-12-22T19:55:21;19.43;;;5.30;;
37131;SDS011;23035;50.032;21.978;2023-12-22T20:00:27;17.33;;;5.57;;
37131;SDS011;23035;50.032;21.978;2023-12-22T20:05:31;19.30;;;6.40;;
37131;SDS011;23035;50.032;21.978;2023-12-22T20:10:40;30.60;;;10.23;;
37131;SDS011;23035;50.032;21.978;2023-12-22T20:15:44;45.67;;;13.88;;
37131;SDS011;23035;50.032;21.978;2023-12-22T20:20:48;15.40;;;5.22;;
37131;SDS011;23035;50.032;21.978;2023-12-22T20:25:55;11.02;;;3.92;;
37131;SDS011;23035;50.032;21.978;2023-12-22T20:31:00;12.93;;;3.70;;
37131;SDS011;23035;50.032;21.978;2023-12-22T20:36:07;18.88;;;4.90;;
37131;SDS011;23035;50.032;21.978;2023-12-22T20:41:13;19.67;;;6.35;;
37131;SDS011;23035;50.032;21.978;2023-12-22T20:46:18;24.05;;;7.28;;
37131;SDS011;23035;50.032;21.978;2023-12-22T20:51:22;12.35;;;3.67;;
37131;SDS011;23035;50.032;21.978;2023-12-22T20:56:29;11.00;;;3.53;;
37131;SDS011;23035;50.032;21.978;2023-12-22T21:01:34;18.30;;;5.15;;
37131;SDS011;23035;50.032;21.978;2023-12-22T21:06:44;25.73;;;6.57;;
37131;SDS011;23035;50.032;21.978;2023-12-22T21:12:04;29.75;;;9.35;;
37131;SDS011;23035;50.032;21.978;2023-12-22T21:17:14;13.35;;;3.78;;
37131;SDS011;23035;50.032;21.978;2023-12-22T21:22:23;25.27;;;8.48;;
37131;SDS011;23035;50.032;21.978;2023-12-22T21:27:32;15.32;;;4.22;;
37131;SDS011;23035;50.032;21.978;2023-12-22T21:32:37;12.77;;;4.28;;
37131;SDS011;23035;50.032;21.978;2023-12-22T21:38:03;13.73;;;4.43;;
37131;SDS011;23035;50.032;21.978;2023-12-22T21:43:09;15.07;;;5.40;;
37131;SDS011;23035;50.032;21.978;2023-12-22T21:48:18;24.13;;;9.15;;
37131;SDS011;23035;50.032;21.978;2023-12-22T21:53:24;23.67;;;7.25;;
37131;SDS011;23035;50.032;21.978;2023-12-22T21:58:30;15.73;;;4.32;;
37131;SDS011;23035;50.032;21.978;2023-12-22T22:03:36;25.98;;;5.00;;
37131;SDS011;23035;50.032;21.978;2023-12-22T22:08:41;15.13;;;4.68;;
37131;SDS011;23035;50.032;21.978;2023-12-22T22:13:47;16.95;;;4.07;;
37131;SDS011;23035;50.032;21.978;2023-12-22T22:18:51;15.43;;;4.57;;
37131;SDS011;23035;50.032;21.978;2023-12-22T22:23:56;15.75;;;3.70;;
37131;SDS011;23035;50.032;21.978;2023-12-22T22:29:05;10.32;;;2.83;;
37131;SDS011;23035;50.032;21.978;2023-12-22T22:34:09;15.52;;;3.85;;
37131;SDS011;23035;50.032;21.978;2023-12-22T22:39:14;13.18;;;3.05;;
37131;SDS011;23035;50.032;21.978;2023-12-22T22:44:20;11.48;;;3.25;;
37131;SDS011;23035;50.032;21.978;2023-12-22T22:49:25;15.02;;;3.95;;
37131;SDS011;23035;50.032;21.978;2023-12-22T22:54:30;14.38;;;3.78;;
37131;SDS011;23035;50.032;21.978;2023-12-22T22:59:37;16.30;;;5.28;;
37131;SDS011;23035;50.032;21.978;2023-12-22T23:04:41;30.52;;;9.43;;
37131;SDS011;23035;50.032;21.978;2023-12-22T23:09:46;16.97;;;5.07;;
37131;SDS011;23035;50.032;21.978;2023-12-22T23:14:52;15.55;;;5.25;;
37131;SDS011;23035;50.032;21.978;2023-12-22T23:19:56;17.30;;;5.15;;
37131;SDS011;23035;50.032;21.978;2023-12-22T23:25:01;20.30;;;6.07;;
37131;SDS011;23035;50.032;21.978;2023-12-22T23:30:08;19.10;;;5.78;;
37131;SDS011;23035;50.032;21.978;2023-12-22T23:35:16;14.77;;;3.92;;
37131;SDS011;23035;50.032;21.978;2023-12-22T23:40:21;11.23;;;2.70;;
37131;SDS011;23035;50.032;21.978;2023-12-22T23:45:27;7.15;;;2.30;;
37131;SDS011;23035;50.032;21.978;2023-12-22T23:50:31;5.03;;;1.95;;
37131;SDS011;23035;50.032;21.978;2023-12-22T23:55:36;14.77;;;2.88;;
